Latest Weather Observations for Bellambi

IDN60901

Issued at 3:35 pm EDT Monday 20 October 2014 (issued every 10 minutes, with the page automatically refreshed every 10 minutes)

About weather observations | Map of Sydney area stations | Latest observations for Sydney area | Other Formats
Station Details ID: 068228 Name: BELLAMBI AWS Lat: -34.37 Lon: 150.93 Height: 10.0 m
Data from the previous 72 hours. | See also: Recent months at Bellambi
Date/Time
EDT
Tmp

°C
App
Tmp
°C
Dew
Point
°C
Rel
Hum
%
Delta-T

°C
Wind Press
QNH
hPa
Press
MSL
hPa
Rain
since
9 am
mm
Dir
 
Spd
km/h
Gust
km/h
Spd
kts
Gust
kts
20/03:30pm 16.5 10.9 10.1 66 3.4 S 30 37 16 20 - - 0.0
20/03:00pm 16.4 10.2 10.0 66 3.4 S 33 37 18 20 - - 0.0
20/02:30pm 16.3 10.8 10.4 68 3.1 S 30 35 16 19 - - 0.0
20/02:00pm 16.5 11.4 11.9 74 2.5 SSW 30 39 16 21 - - 0.0
20/01:30pm 16.2 9.7 11.8 75 2.4 S 37 50 20 27 - - 0.0
20/01:00pm 16.4 11.3 13.1 81 1.8 S 32 41 17 22 - - 0.0
20/12:30pm 16.4 9.7 12.4 77 2.2 S 39 46 21 25 - - 0.0
20/12:00pm 16.6 9.7 12.9 79 2.1 S 41 48 22 26 - - 0.0
20/11:30am 16.8 10.6 12.5 76 2.4 SSW 37 54 20 29 - - 0.0
20/11:00am 17.1 9.4 11.4 69 3.1 S 43 52 23 28 - - 0.0
20/10:30am 16.8 8.2 11.5 71 2.9 S 48 56 26 30 - - 0.0
20/10:00am 16.9 7.7 11.0 68 3.2 S 50 59 27 32 - - 0.0
20/09:30am 17.4 8.4 11.7 69 3.1 S 50 61 27 33 - - 0.0
20/09:00am 17.0 8.0 11.5 70 3.0 S 50 59 27 32 - - 0.0
20/08:30am 17.3 8.3 11.6 69 3.1 S 50 59 27 32 - - 0.0
20/08:00am 17.2 8.7 11.9 71 2.9 S 48 57 26 31 - - 0.0
20/07:30am 17.2 9.0 11.7 70 3.0 S 46 59 25 32 - - 0.0
20/07:00am 17.5 8.7 12.2 71 2.9 S 50 59 27 32 - - 0.0
20/06:30am 17.5 9.2 12.6 73 2.7 S 48 59 26 32 - - 0.0
20/06:00am 17.6 8.3 12.9 74 2.6 S 54 65 29 35 - - 0.0
20/05:30am 17.6 8.5 13.7 78 2.2 S 54 67 29 36 - - 0.0
20/05:00am 18.4 9.1 14.1 76 2.5 SSW 56 76 30 41 - - 0.0
20/04:55am 18.7 9.2 14.2 75 2.6 SSW 57 76 31 41 - - 0.0
20/04:53am 18.7 8.3 13.8 73 2.8 SSW 61 76 33 41 - - 0.0
20/04:40am 19.1 15.0 13.7 71 3.1 S 28 39 15 21 - - 0.0
20/04:30am 19.5 16.5 12.0 62 4.2 SSW 19 20 10 11 - - 0.0
20/04:00am 21.9 20.5 9.4 45 6.7 WSW 7 15 4 8 - - 0.0
20/03:30am 21.2 17.6 10.4 50 5.9 WNW 20 28 11 15 - - 0.0
20/03:00am 20.2 17.4 11.4 57 4.9 WNW 17 20 9 11 - - 0.0
20/02:30am 20.3 17.7 12.0 59 4.6 WNW 17 22 9 12 - - 0.0
20/02:00am 19.3 19.7 12.6 65 3.8 WSW 2 9 1 5 - - 0.0
20/01:30am 19.6 20.0 12.6 64 3.9 N 2 9 1 5 - - 0.0
20/01:00am 18.8 18.0 12.8 68 3.4 WNW 9 11 5 6 - - 0.0
20/12:30am 19.1 18.2 13.7 71 3.1 NNW 11 15 6 8 - - 0.0
20/12:00am 19.6 19.5 13.8 69 3.3 N 7 15 4 8 - - 0.0
 
Date/Time
EDT
Tmp

°C
App
Tmp
°C
Dew
Point
°C
Rel
Hum
%
Delta-T

°C
Wind Press
QNH
hPa
Press
MSL
hPa
Rain
since
9 am
mm
Dir
 
Spd
km/h
Gust
km/h
Spd
kts
Gust
kts
19/11:30pm 19.3 19.0 14.3 73 2.9 NE 9 13 5 7 - - 0.0
19/11:00pm 18.7 19.0 14.4 76 2.5 ENE 6 9 3 5 - - 0.0
19/10:30pm 18.5 18.0 14.8 79 2.2 NNE 11 15 6 8 - - 0.0
19/10:00pm 18.6 16.7 15.1 80 2.0 NNE 19 22 10 12 - - 0.0
19/09:30pm 18.6 16.4 14.9 79 2.2 NNE 20 24 11 13 - - 0.0
19/09:00pm 18.6 16.3 14.7 78 2.3 NNE 20 24 11 13 - - 0.0
19/08:30pm 18.6 16.3 14.7 78 2.3 NNE 20 24 11 13 - - 0.0
19/08:00pm 18.8 17.3 15.3 80 2.1 N 17 20 9 11 - - 0.0
19/07:30pm 18.9 16.7 15.0 78 2.3 NNE 20 26 11 14 - - 0.0
19/07:00pm 19.1 17.2 15.2 78 2.3 N 19 24 10 13 - - 0.0
19/06:30pm 19.2 17.1 15.1 77 2.4 N 20 32 11 17 - - 0.0
19/06:00pm 19.4 17.3 15.1 76 2.5 N 20 28 11 15 - - 0.0
19/05:30pm 19.6 17.0 15.0 75 2.7 NNE 22 28 12 15 - - 0.0
19/05:00pm 19.6 17.4 15.0 75 2.7 N 20 28 11 15 - - 0.0
19/04:30pm 19.9 16.2 14.9 73 2.9 NNE 28 37 15 20 - - 0.0
19/04:00pm 20.1 16.0 14.9 72 3.0 NNE 30 37 16 20 - - 0.0
19/03:30pm 20.2 15.7 15.0 72 3.1 NE 32 39 17 21 - - 0.0
19/03:00pm 20.4 16.4 15.2 72 3.1 NNE 30 37 16 20 - - 0.0
19/02:30pm 20.4 16.0 15.2 72 3.1 NE 32 37 17 20 - - 0.0
19/02:00pm 20.3 15.2 14.9 71 3.2 NE 35 43 19 23 - - 0.0
19/01:30pm 20.3 15.2 14.9 71 3.2 NE 35 41 19 22 - - 0.0
19/01:00pm 20.3 15.8 14.9 71 3.2 NE 32 37 17 20 - - 0.0
19/12:30pm 20.5 16.0 14.8 70 3.3 ENE 32 37 17 20 - - 0.0
19/12:00pm 21.8 18.5 13.9 61 4.6 ENE 24 28 13 15 - - 0.0
19/11:30am 21.8 19.2 13.7 60 4.7 NE 20 22 11 12 - - 0.0
19/11:00am 21.6 19.4 13.2 59 4.8 ENE 17 19 9 10 - - 0.0
19/10:30am 20.9 19.3 11.5 55 5.2 NE 11 15 6 8 - - 0.0
19/10:00am 20.2 18.1 11.1 56 5.0 NE 13 17 7 9 - - 0.0
19/09:30am 19.5 19.1 11.0 58 4.6 N 4 20 2 11 - - 0.0
19/09:00am 18.5 17.6 9.3 55 4.8 N 4 9 2 5 - - 0.0
19/08:30am 17.4 16.1 9.8 61 4.0 NW 7 15 4 8 - - 0.0
19/08:00am 16.2 13.6 9.4 64 3.5 NNW 13 19 7 10 - - 0.0
19/07:30am 15.3 13.1 9.2 67 3.1 NNW 11 20 6 11 - - 0.0
19/07:00am 15.1 10.9 9.7 70 2.8 NNW 22 28 12 15 - - 0.0
19/06:30am 15.0 11.1 9.6 70 2.8 NNW 20 26 11 14 - - 0.0
19/06:00am 14.1 10.2 8.7 70 2.7 NNW 19 28 10 15 - - 0.0
19/05:30am 14.9 11.1 9.1 68 3.0 N 19 24 10 13 - - 0.0
19/05:00am 15.0 11.7 9.6 70 2.8 N 17 20 9 11 - - 0.0
19/04:30am 14.8 12.2 9.2 69 2.9 NNW 13 17 7 9 - - 0.0
19/04:00am 15.7 12.5 10.0 69 3.0 N 17 22 9 12 - - 0.0
19/03:30am 15.8 12.6 10.1 69 3.0 N 17 24 9 13 - - 0.0
19/03:00am 15.8 12.2 9.9 68 3.1 N 19 32 10 17 - - 0.0
19/02:30am 15.8 12.1 10.1 69 3.0 N 20 32 11 17 - - 0.0
19/02:00am 15.8 11.7 10.1 69 3.0 N 22 30 12 16 - - 0.0
19/01:30am 15.8 12.2 9.7 67 3.2 N 19 26 10 14 - - 0.0
19/01:00am 15.9 12.2 9.6 66 3.3 N 19 24 10 13 - - 0.0
19/12:30am 16.0 11.3 9.4 65 3.4 NNW 24 30 13 16 - - 0.0
19/12:00am 16.0 12.3 10.1 68 3.1 NNW 20 28 11 15 - - 0.0
 
Date/Time
EDT
Tmp

°C
App
Tmp
°C
Dew
Point
°C
Rel
Hum
%
Delta-T

°C
Wind Press
QNH
hPa
Press
MSL
hPa
Rain
since
9 am
mm
Dir
 
Spd
km/h
Gust
km/h
Spd
kts
Gust
kts
18/11:30pm 16.2 12.5 10.3 68 3.1 N 20 28 11 15 - - 0.0
18/11:00pm 15.8 13.4 9.9 68 3.1 N 13 20 7 11 - - 0.0
18/10:30pm 15.9 12.3 10.0 68 3.1 N 19 20 10 11 - - 0.0
18/10:00pm 15.6 12.0 9.7 68 3.1 NNW 19 20 10 11 - - 0.0
18/09:30pm 15.2 12.7 9.6 69 2.9 NNW 13 17 7 9 - - 0.0
18/09:00pm 15.4 13.1 9.1 66 3.2 NW 11 15 6 8 - - 0.0
18/08:30pm 16.0 13.5 9.7 66 3.3 NNW 13 17 7 9 - - 0.0
18/08:00pm 16.3 13.8 9.7 65 3.4 N 13 17 7 9 - - 0.0
18/07:30pm 16.8 12.6 9.7 63 3.7 NNE 22 26 12 14 - - 0.0
18/07:00pm 16.8 12.5 9.5 62 3.8 NE 22 26 12 14 - - 0.0
18/06:30pm 17.1 13.3 9.8 62 3.8 NE 20 24 11 13 - - 0.0
18/06:00pm 17.5 13.7 9.7 60 4.1 NE 20 28 11 15 - - 0.0
18/05:30pm 17.9 14.7 9.8 59 4.3 NNE 17 20 9 11 - - 0.0
18/05:00pm 18.1 14.2 9.5 57 4.5 ENE 20 24 11 13 - - 0.0
18/04:30pm 18.4 14.7 9.5 56 4.7 ENE 19 22 10 12 - - 0.0
18/04:00pm 18.8 15.2 9.8 56 4.8 ENE 19 24 10 13 - - 0.0
18/03:30pm 18.9 15.1 9.1 53 5.1 NE 19 20 10 11 - - 0.0
18/03:00pm 18.9 15.5 10.5 58 4.5 NE 19 20 10 11 - - 0.0
18/02:30pm 18.7 15.1 10.5 59 4.4 ENE 20 24 11 13 - - 0.0
18/02:00pm 18.5 14.9 10.6 60 4.3 ENE 20 24 11 13 - - 0.0
18/01:30pm 18.8 15.6 11.1 61 4.2 ENE 19 22 10 12 - - 0.0
18/01:00pm 18.4 15.2 11.2 63 3.9 ENE 19 22 10 12 - - 0.0
18/12:30pm 18.2 15.2 10.6 61 4.1 ENE 17 19 9 10 - - 0.0
18/12:00pm 18.2 16.3 10.6 61 4.1 ENE 11 15 6 8 - - 0.0
18/11:30am 17.7 16.0 9.8 60 4.2 ENE 9 11 5 6 - - 0.0
18/11:00am 17.9 16.1 9.5 58 4.4 E 9 13 5 7 - - 0.0
18/10:30am 17.6 15.7 9.0 57 4.5 ESE 9 11 5 6 - - 0.0
18/10:00am 17.5 15.6 8.9 57 4.5 ESE 9 11 5 6 - - 0.0
18/09:30am 17.2 15.3 8.9 58 4.3 SE 9 13 5 7 - - 0.0
18/09:00am 16.9 15.4 8.6 58 4.3 S 6 9 3 5 - - 0.0
18/08:30am 16.1 14.5 8.8 62 3.7 S 7 9 4 5 - - 0.0
18/08:00am 15.2 13.9 9.8 70 2.8 SW 7 9 4 5 - - 0.0
18/07:30am 12.9 10.4 8.4 74 2.2 WSW 11 13 6 7 - - 0.0
18/07:00am 12.6 10.0 7.9 73 2.3 W 11 13 6 7 - - 0.0
18/06:30am 11.9 8.8 7.4 74 2.2 WSW 13 15 7 8 - - 0.0
18/06:00am 11.5 8.3 6.8 73 2.2 WSW 13 15 7 8 - - 0.0
18/05:30am 11.6 8.4 6.7 72 2.3 W 13 15 7 8 - - 0.0
18/05:00am 11.9 9.1 7.0 72 2.3 WSW 11 13 6 7 - - 0.0
18/04:30am 12.1 9.0 7.2 72 2.4 WSW 13 17 7 9 - - 0.0
18/04:00am 12.3 9.2 7.2 71 2.5 WSW 13 15 7 8 - - 0.0
18/03:30am 12.4 9.3 7.3 71 2.5 WSW 13 15 7 8 - - 0.0
18/03:00am 12.2 9.1 7.1 71 2.5 WSW 13 15 7 8 - - 0.0
18/02:30am 12.5 9.4 7.4 71 2.5 WSW 13 17 7 9 - - 0.0
18/02:00am 12.4 9.7 7.5 72 2.4 WSW 11 13 6 7 - - 0.0
18/01:30am 12.6 9.6 7.5 71 2.5 WSW 13 15 7 8 - - 0.0
18/01:00am 12.8 10.1 7.5 70 2.6 WSW 11 13 6 7 - - 0.0
18/12:30am 13.2 9.8 7.6 69 2.7 SW 15 17 8 9 - - 0.0
18/12:00am 13.4 10.0 7.8 69 2.8 WSW 15 19 8 10 - - 0.0
 
Date/Time
EDT
Tmp

°C
App
Tmp
°C
Dew
Point
°C
Rel
Hum
%
Delta-T

°C
Wind Press
QNH
hPa
Press
MSL
hPa
Rain
since
9 am
mm
Dir
 
Spd
km/h
Gust
km/h
Spd
kts
Gust
kts
17/11:30pm 13.4 10.9 8.0 70 2.7 WSW 11 15 6 8 - - 0.0
17/11:00pm 13.3 10.8 8.0 70 2.6 WSW 11 15 6 8 - - 0.0
17/10:30pm 13.5 10.9 7.7 68 2.9 WSW 11 17 6 9 - - 0.0
17/10:00pm 14.8 11.1 7.8 63 3.5 SW 17 22 9 12 - - 0.0
17/09:30pm 15.6 10.6 7.9 60 3.9 S 24 30 13 16 - - 0.0
17/09:00pm 15.6 10.9 7.9 60 3.9 SSE 22 28 12 15 - - 0.0
17/08:30pm 15.8 10.4 8.1 60 3.9 SSE 26 32 14 17 - - 0.0
17/08:00pm 15.9 11.0 8.6 62 3.7 S 24 32 13 17 - - 0.0
17/07:30pm 15.8 10.5 8.3 61 3.8 S 26 33 14 18 - - 0.0
17/07:00pm 15.7 9.8 9.1 65 3.4 S 30 35 16 19 - - 0.0
17/06:30pm 15.7 9.1 8.7 63 3.6 S 33 37 18 20 - - 0.0
17/06:00pm 15.9 9.5 9.3 65 3.4 S 33 39 18 21 - - 0.0
17/05:30pm 16.0 9.9 9.7 66 3.3 S 32 39 17 21 - - 0.0
17/05:00pm 15.8 9.4 9.5 66 3.3 S 33 39 18 21 - - 0.0
17/04:30pm 16.5 10.0 9.0 61 3.9 S 33 39 18 21 - - 0.0
17/04:00pm 16.1 9.1 9.8 66 3.3 S 37 44 20 24 - - 0.0

Latest Capital City Observations: Canberra | Sydney | Melbourne | Brisbane | Adelaide | Perth | Hobart | Darwin

Other Formats:

Comma delimited format used in spreadsheet applications
http://www.bom.gov.au/fwo/IDN60901/IDN60901.94749.axf

JavaScript Object Notation format (JSON) in row-major order
http://www.bom.gov.au/fwo/IDN60901/IDN60901.94749.json